Basalt, Idaho
Current Conditions -  °F | °C
As of 5:53 PM on Sunday 23 Nov 2014 (Local Time) from KIDA Reporting Station
Broken Clouds Broken Clouds  
Wind Chill: 23°   Ceiling: 9500
Heat Index: 34°   Visibility: 10mi
Dew Point: 26°   Wind: 18mph
Humidity: 73%   Direction: 220°SW
Pressure: 30.12"   Gusts: NA
Location:  43.32°N, 112.16°W
Report Text: KIDA 240053Z 22016KT 10SM BKN095 01/M03 A3012 RMK AO2 SLP225 T00111033
Loading
Personal Weather Stations






























Interactive Weather Map New forecast layout! Learn more

10-Day Weather Forecast

Advertisements
Track Severe Weather on mobile